createdAt,value
2022-11-16T00:01:01.936Z,95374.13
2022-11-16T00:03:33.581Z,95353.56
2022-11-16T00:06:03.944Z,95325.81
2022-11-16T00:08:35.022Z,95333.34
2022-11-16T00:11:08.346Z,95317.44
2022-11-16T00:13:38.919Z,95314.00
2022-11-16T00:16:09.045Z,95316.94
2022-11-16T00:18:39.688Z,95315.06
2022-11-16T00:21:08.304Z,95320.69
2022-11-16T00:23:38.460Z,95311.97
2022-11-16T00:26:09.418Z,95309.81
2022-11-16T00:28:37.884Z,95312.66
2022-11-16T00:31:08.432Z,95318.69
2022-11-16T00:33:37.150Z,95315.41
2022-11-16T00:36:09.496Z,95319.34
2022-11-16T00:38:38.496Z,95309.16
2022-11-16T00:41:07.821Z,95299.63
2022-11-16T00:43:36.810Z,95287.00
2022-11-16T00:46:06.298Z,95282.31
2022-11-16T00:48:35.077Z,95262.47
2022-11-16T00:51:04.748Z,95252.66
2022-11-16T00:53:34.954Z,95256.31
2022-11-16T00:56:04.235Z,95271.25
2022-11-16T00:58:37.060Z,95271.25
2022-11-16T01:01:12.063Z,95271.81
2022-11-16T01:03:40.926Z,95263.72
2022-11-16T01:06:12.510Z,95254.91
2022-11-16T01:08:43.594Z,95260.69
2022-11-16T01:11:33.361Z,95265.22
2022-11-16T01:14:03.154Z,95264.50
2022-11-16T01:16:32.911Z,95270.03
2022-11-16T01:19:01.522Z,95277.13
2022-11-16T01:21:30.635Z,95269.94
2022-11-16T01:24:00.871Z,95280.63
2022-11-16T01:26:30.067Z,95274.19
2022-11-16T01:28:59.785Z,95249.63
2022-11-16T01:31:31.865Z,95279.56
2022-11-16T01:34:04.129Z,95274.19
2022-11-16T01:36:33.707Z,95274.91
2022-11-16T01:39:06.435Z,95260.34
2022-11-16T01:41:49.462Z,95259.38
2022-11-16T01:44:58.612Z,95248.66
2022-11-16T01:47:27.774Z,95253.00
2022-11-16T01:50:03.524Z,95246.31
2022-11-16T01:52:36.818Z,95251.28
2022-11-16T01:55:07.543Z,95242.63
2022-11-16T01:58:22.291Z,95246.78
2022-11-16T02:00:57.216Z,95247.13
2022-11-16T02:03:43.092Z,95231.41
2022-11-16T02:06:35.020Z,95234.81
2022-11-16T02:09:51.482Z,95218.66
2022-11-16T02:12:38.391Z,95237.50
2022-11-16T02:15:19.795Z,95242.16
2022-11-16T02:18:05.850Z,95228.47
2022-11-16T02:21:00.237Z,95214.59
2022-11-16T02:24:00.971Z,95217.13
2022-11-16T02:26:46.851Z,95189.59
2022-11-16T02:29:24.293Z,95207.09
2022-11-16T02:32:00.464Z,95208.00
2022-11-16T02:34:34.157Z,95207.09
2022-11-16T02:37:06.609Z,95210.97
2022-11-16T02:39:38.391Z,95210.16
2022-11-16T02:42:12.080Z,95217.13
2022-11-16T02:44:46.184Z,95219.31
2022-11-16T02:47:20.483Z,95217.09
2022-11-16T02:49:57.720Z,95212.34
2022-11-16T02:52:27.657Z,95210.44
2022-11-16T02:54:56.519Z,95173.72
2022-11-16T02:57:40.420Z,95203.97
2022-11-16T03:00:20.382Z,95195.81
2022-11-16T03:02:57.783Z,95196.22
2022-11-16T03:05:32.995Z,95200.78
2022-11-16T03:08:15.526Z,95200.31
2022-11-16T03:11:04.716Z,95198.03
2022-11-16T03:13:36.983Z,95198.53
2022-11-16T03:16:12.538Z,95194.28
2022-11-16T03:18:43.625Z,95197.63
2022-11-16T03:21:18.903Z,95198.44
2022-11-16T03:23:48.380Z,95194.13
2022-11-16T03:26:23.935Z,95202.25
2022-11-16T03:29:00.724Z,95203.03
2022-11-16T03:31:39.955Z,95203.41
2022-11-16T03:34:16.832Z,95206.66
2022-11-16T03:36:49.308Z,95202.75
2022-11-16T03:39:24.783Z,95203.16
2022-11-16T03:41:54.412Z,95199.25
2022-11-16T03:44:23.533Z,95200.66
2022-11-16T03:46:53.820Z,95208.13
2022-11-16T03:49:25.207Z,95199.06
2022-11-16T03:51:55.663Z,95195.66
2022-11-16T03:54:25.171Z,95204.78
2022-11-16T03:56:54.044Z,95204.53
2022-11-16T03:59:22.791Z,95201.16
2022-11-16T04:01:53.565Z,95203.38
2022-11-16T04:04:40.287Z,95193.25
2022-11-16T04:07:28.404Z,95195.44
2022-11-16T04:10:14.526Z,95190.38
2022-11-16T04:13:03.264Z,95189.63
2022-11-16T04:15:49.865Z,95196.97
2022-11-16T04:18:37.571Z,95201.28
2022-11-16T04:21:24.307Z,95202.00
2022-11-16T04:24:14.507Z,95202.78
2022-11-16T04:27:03.622Z,95205.09
2022-11-16T04:29:33.050Z,95212.16
2022-11-16T04:32:19.194Z,95208.41
2022-11-16T04:35:07.235Z,95201.63
2022-11-16T04:37:52.810Z,95200.25
2022-11-16T04:40:39.822Z,95204.31
2022-11-16T04:43:10.754Z,95208.66
2022-11-16T04:46:07.673Z,95214.84
2022-11-16T04:48:41.722Z,95218.34
2022-11-16T04:51:13.142Z,95226.19
2022-11-16T04:53:42.057Z,95238.34
2022-11-16T04:56:23.492Z,95244.63
2022-11-16T04:58:51.905Z,95244.38
2022-11-16T05:01:42.138Z,95262.72
2022-11-16T05:04:11.339Z,95267.88
2022-11-16T05:06:42.202Z,95262.53
2022-11-16T05:09:11.027Z,95283.88
2022-11-16T05:11:39.587Z,95280.31
2022-11-16T05:14:10.045Z,95296.75
2022-11-16T05:16:39.866Z,95283.53
2022-11-16T05:19:26.141Z,95296.19
2022-11-16T05:21:56.300Z,95304.81
2022-11-16T05:24:38.093Z,95288.09
2022-11-16T05:27:10.107Z,95301.81
2022-11-16T05:29:40.125Z,95292.13
2022-11-16T05:32:12.190Z,95296.69
2022-11-16T05:34:41.759Z,95295.84
2022-11-16T05:37:13.656Z,95295.63
2022-11-16T05:39:43.946Z,95292.59
2022-11-16T05:42:12.364Z,95293.41
2022-11-16T05:44:41.898Z,95288.34
2022-11-16T05:47:11.743Z,95288.91
2022-11-16T05:49:40.619Z,95283.53
2022-11-16T05:52:09.544Z,95285.16
2022-11-16T05:54:42.296Z,95281.41
2022-11-16T05:57:10.857Z,95282.78
2022-11-16T05:59:41.026Z,95280.09
2022-11-16T06:02:09.614Z,95277.63
2022-11-16T06:04:39.469Z,95283.03
2022-11-16T06:07:08.093Z,95283.09
2022-11-16T06:09:38.174Z,95289.81
2022-11-16T06:12:16.783Z,95290.38
2022-11-16T06:14:46.694Z,95288.81
2022-11-16T06:17:15.592Z,95295.03
2022-11-16T06:19:45.319Z,95299.09
2022-11-16T06:22:15.536Z,95297.22
2022-11-16T06:24:44.996Z,95295.91
2022-11-16T06:27:14.064Z,95290.75
2022-11-16T06:29:44.600Z,95298.28
2022-11-16T06:32:15.091Z,95292.97
2022-11-16T06:34:43.801Z,95291.56
2022-11-16T06:37:14.273Z,95286.19
2022-11-16T06:39:43.540Z,95292.38
2022-11-16T06:42:12.401Z,95296.72
2022-11-16T06:44:42.421Z,95292.63
2022-11-16T06:47:15.948Z,95289.63
2022-11-16T06:49:45.700Z,95287.69
2022-11-16T06:52:20.191Z,95287.94
2022-11-16T06:54:49.886Z,95273.31
2022-11-16T06:57:19.524Z,95274.06
2022-11-16T06:59:48.402Z,95272.44
2022-11-16T07:02:21.737Z,95281.34
2022-11-16T07:04:50.950Z,95276.34
2022-11-16T07:07:20.608Z,95284.22
2022-11-16T07:09:49.198Z,95284.78
2022-11-16T07:12:18.545Z,95286.81
2022-11-16T07:14:48.003Z,95291.06
2022-11-16T07:17:17.842Z,95282.84
2022-11-16T07:19:47.750Z,95261.06
2022-11-16T07:22:16.728Z,95283.16
2022-11-16T07:24:47.070Z,95294.00
2022-11-16T07:27:15.602Z,95312.03
2022-11-16T07:29:47.777Z,95314.47
2022-11-16T07:32:48.024Z,95311.38
2022-11-16T07:35:25.000Z,95299.66
2022-11-16T07:37:53.813Z,95303.88
2022-11-16T07:40:22.418Z,95298.59
2022-11-16T07:42:51.994Z,95305.03
2022-11-16T07:45:39.297Z,95310.56
2022-11-16T07:48:12.858Z,95289.03
2022-11-16T07:51:18.557Z,95305.44
2022-11-16T07:54:06.601Z,95323.72
2022-11-16T07:56:35.088Z,95317.31
2022-11-16T07:59:04.544Z,95315.31
2022-11-16T08:01:36.605Z,95311.22
2022-11-16T08:04:07.171Z,95316.03
2022-11-16T08:06:35.630Z,95321.34
2022-11-16T08:09:05.311Z,95329.16
2022-11-16T08:11:35.672Z,95313.19
2022-11-16T08:14:05.283Z,95330.97
2022-11-16T08:16:34.558Z,95327.53
2022-11-16T08:19:12.556Z,95318.09
2022-11-16T08:21:41.468Z,95316.44
2022-11-16T08:24:10.593Z,95317.59
2022-11-16T08:26:42.665Z,95307.13
2022-11-16T08:29:15.623Z,95314.75
2022-11-16T08:31:49.722Z,95313.44
2022-11-16T08:34:22.568Z,95314.88
2022-11-16T08:36:55.397Z,95318.41
2022-11-16T08:39:29.279Z,95307.63
2022-11-16T08:41:58.546Z,95305.84
2022-11-16T08:44:27.476Z,95304.72
2022-11-16T08:46:59.011Z,95305.53
2022-11-16T08:49:37.215Z,95309.59
2022-11-16T08:52:06.431Z,95316.03
2022-11-16T08:54:36.787Z,95315.47
2022-11-16T08:57:06.312Z,95320.03
2022-11-16T08:59:38.315Z,95320.63
2022-11-16T09:02:12.091Z,95320.09
2022-11-16T09:04:42.986Z,95319.03
2022-11-16T09:07:11.609Z,95323.88
2022-11-16T09:09:41.043Z,95287.00
2022-11-16T09:12:10.032Z,95316.50
2022-11-16T09:14:38.943Z,95322.56
2022-11-16T09:17:07.366Z,95324.13
2022-11-16T09:19:36.780Z,95318.91
2022-11-16T09:22:06.848Z,95322.91
2022-11-16T09:24:36.449Z,95309.66
2022-11-16T09:27:06.723Z,95315.78
2022-11-16T09:29:36.003Z,95327.47
2022-11-16T09:32:06.474Z,95318.41
2022-11-16T09:34:35.305Z,95313.56
2022-11-16T09:37:04.379Z,95282.56
2022-11-16T09:39:34.949Z,95316.91
2022-11-16T09:42:17.366Z,95313.88
2022-11-16T09:45:07.967Z,95312.38
2022-11-16T09:47:49.271Z,95314.56
2022-11-16T09:50:28.299Z,95323.72
2022-11-16T09:53:00.686Z,95327.38
2022-11-16T09:55:36.397Z,95324.50
2022-11-16T09:58:17.781Z,95322.72
2022-11-16T10:00:52.717Z,95329.22
2022-11-16T10:03:21.386Z,95327.84
2022-11-16T10:06:03.032Z,95321.50
2022-11-16T10:08:44.659Z,95319.19
2022-11-16T10:11:33.189Z,95319.19
2022-11-16T10:14:18.069Z,95316.06
2022-11-16T10:16:55.099Z,95318.28
2022-11-16T10:19:34.128Z,95323.25
2022-11-16T10:22:11.985Z,95315.16
2022-11-16T10:24:53.664Z,95305.50
2022-11-16T10:27:45.648Z,95312.50
2022-11-16T10:30:17.980Z,95308.00
2022-11-16T10:32:50.503Z,95295.41
2022-11-16T10:35:27.186Z,95304.56
2022-11-16T10:37:59.642Z,95296.56
2022-11-16T10:40:32.536Z,95295.78
2022-11-16T10:43:06.562Z,95268.47
2022-11-16T10:45:40.861Z,95295.69
2022-11-16T10:48:19.017Z,95299.25
2022-11-16T10:50:49.016Z,95287.16
2022-11-16T10:53:28.619Z,95290.75
2022-11-16T10:56:12.423Z,95288.88
2022-11-16T10:58:53.857Z,95297.00
2022-11-16T11:01:41.320Z,95291.19
2022-11-16T11:04:22.644Z,95295.53
2022-11-16T11:06:53.278Z,95293.41
2022-11-16T11:09:32.322Z,95298.28
2022-11-16T11:12:31.658Z,95296.47
2022-11-16T11:15:05.270Z,95296.25
2022-11-16T11:17:35.937Z,95293.03
2022-11-16T11:20:07.824Z,95291.22
2022-11-16T11:22:44.839Z,95302.81
2022-11-16T11:25:23.220Z,95300.44
2022-11-16T11:27:53.230Z,95304.50
2022-11-16T11:30:23.946Z,95305.88
2022-11-16T11:32:53.892Z,95303.16
2022-11-16T11:35:28.548Z,95307.50
2022-11-16T11:38:07.483Z,95305.38
2022-11-16T11:40:36.774Z,95306.75
2022-11-16T11:43:07.868Z,95299.41
2022-11-16T11:45:46.020Z,95296.47
2022-11-16T11:48:33.489Z,95300.25
2022-11-16T11:51:05.949Z,95300.78
2022-11-16T11:53:48.015Z,95300.25
2022-11-16T11:56:16.823Z,95299.19
2022-11-16T11:58:48.436Z,95292.47
2022-11-16T12:01:33.459Z,95291.69
2022-11-16T12:04:36.142Z,95289.84
2022-11-16T12:07:13.972Z,95286.63
2022-11-16T12:09:49.036Z,95280.19
2022-11-16T12:12:35.371Z,95280.22
2022-11-16T12:15:16.849Z,95286.41
2022-11-16T12:17:55.823Z,95278.63
2022-11-16T12:20:36.165Z,95279.72
2022-11-16T12:23:27.466Z,95278.16
2022-11-16T12:26:04.542Z,95284.09
2022-11-16T12:28:52.752Z,95276.31
2022-11-16T12:31:46.139Z,95277.41
2022-11-16T12:34:26.711Z,95277.19
2022-11-16T12:37:05.281Z,95271.50
2022-11-16T12:39:36.954Z,95281.81
2022-11-16T12:42:23.605Z,95272.94
2022-11-16T12:45:18.723Z,95279.97
2022-11-16T12:48:05.586Z,95284.06
2022-11-16T12:50:51.221Z,95271.91
2022-11-16T12:53:40.920Z,95276.50
2022-11-16T12:56:18.476Z,95276.53
2022-11-16T12:59:06.913Z,95259.28
2022-11-16T13:01:40.631Z,95250.59
2022-11-16T13:04:14.459Z,95257.16
2022-11-16T13:06:51.214Z,95253.38
2022-11-16T13:09:25.664Z,95247.44
2022-11-16T13:11:57.931Z,95251.75
2022-11-16T13:14:33.006Z,95236.03
2022-11-16T13:17:04.139Z,95244.19
2022-11-16T13:19:33.015Z,95254.47
2022-11-16T13:22:14.066Z,95252.31
2022-11-16T13:24:51.978Z,95246.66
2022-11-16T13:27:30.606Z,95253.69
2022-11-16T13:30:05.599Z,95246.38
2022-11-16T13:32:54.148Z,95251.78
2022-11-16T13:35:24.539Z,95249.59
2022-11-16T13:37:54.673Z,95246.06
2022-11-16T13:40:27.724Z,95251.25
2022-11-16T13:43:05.976Z,95249.09
2022-11-16T13:45:38.014Z,95251.00
2022-11-16T13:48:18.707Z,95250.78
2022-11-16T13:50:53.546Z,95247.31
2022-11-16T13:56:25.541Z,95243.56
2022-11-16T13:58:59.480Z,95241.94
2022-11-16T14:01:59.098Z,95247.34
2022-11-16T14:04:54.560Z,95247.88
2022-11-16T14:07:35.427Z,95244.63
2022-11-16T14:10:08.006Z,95237.78
2022-11-16T14:13:01.614Z,95248.59
2022-11-16T14:15:32.673Z,95252.13
2022-11-16T14:18:37.590Z,95248.59
2022-11-16T14:21:14.028Z,95246.19
2022-11-16T14:24:15.107Z,95244.56
2022-11-16T14:26:58.839Z,95256.50
2022-11-16T14:29:45.434Z,95244.03
2022-11-16T14:32:22.990Z,95248.41
2022-11-16T14:34:55.013Z,95246.22
2022-11-16T14:37:33.529Z,95251.38
2022-11-16T14:40:08.364Z,95245.19
2022-11-16T14:43:09.891Z,95237.59
2022-11-16T14:45:39.686Z,95235.16
2022-11-16T14:48:16.446Z,95234.09
2022-11-16T14:50:58.545Z,95231.66
2022-11-16T14:53:29.073Z,95227.31
2022-11-16T14:56:07.836Z,95226.50
2022-11-16T14:58:38.130Z,95222.19
2022-11-16T15:01:09.452Z,95223.28
2022-11-16T15:03:42.309Z,95208.66
2022-11-16T15:06:11.303Z,95223.28
2022-11-16T15:08:45.312Z,95231.13
2022-11-16T15:11:23.929Z,95223.56
2022-11-16T15:13:55.766Z,95220.28
2022-11-16T15:16:24.704Z,95224.38
2022-11-16T15:18:58.405Z,95217.59
2022-11-16T15:21:28.245Z,95213.00
2022-11-16T15:26:47.189Z,95200.84
2022-11-16T15:29:19.771Z,95202.47
2022-11-16T15:31:50.361Z,95199.22
2022-11-16T15:34:20.289Z,95214.88
2022-11-16T15:36:50.729Z,95217.56
2022-11-16T15:39:23.028Z,95214.34
2022-11-16T15:41:52.971Z,95211.34
2022-11-16T15:44:24.826Z,95207.00
2022-11-16T15:46:56.931Z,95206.47
2022-11-16T15:49:30.220Z,95205.94
2022-11-16T15:52:00.123Z,95199.13
2022-11-16T15:54:52.120Z,95208.03
2022-11-16T15:57:22.365Z,95198.28
2022-11-16T15:59:54.938Z,95205.03
2022-11-16T16:02:26.471Z,95202.59
2022-11-16T16:04:55.621Z,95209.59
2022-11-16T16:07:38.170Z,95204.75
2022-11-16T16:10:15.176Z,95207.44
2022-11-16T16:12:50.304Z,95184.94
2022-11-16T16:15:26.854Z,95215.28
2022-11-16T16:17:55.920Z,95212.59
2022-11-16T16:20:27.715Z,95208.00
2022-11-16T16:23:07.483Z,95209.63
2022-11-16T16:25:37.464Z,95217.19
2022-11-16T16:28:06.871Z,95190.88
2022-11-16T16:30:36.631Z,95212.00
2022-11-16T16:33:05.872Z,95219.03
2022-11-16T16:35:34.686Z,95208.78
2022-11-16T16:38:03.946Z,95202.53
2022-11-16T16:40:32.426Z,95202.53
2022-11-16T16:43:01.739Z,95202.78
2022-11-16T16:45:38.616Z,95160.81
2022-11-16T16:48:08.134Z,95201.72
2022-11-16T16:50:37.581Z,95199.00
2022-11-16T16:53:06.578Z,95209.31
2022-11-16T16:55:37.816Z,95201.72
2022-11-16T16:58:07.439Z,95207.41
2022-11-16T17:00:37.776Z,95209.59
2022-11-16T17:03:06.232Z,95205.78
2022-11-16T17:05:35.486Z,95200.38
2022-11-16T17:08:04.481Z,95208.22
2022-11-16T17:10:32.904Z,95204.47
2022-11-16T17:13:03.391Z,95205.53
2022-11-16T17:15:31.916Z,95203.66
2022-11-16T17:18:01.926Z,95201.47
2022-11-16T17:20:30.346Z,95198.75
2022-11-16T17:22:59.543Z,95201.47
2022-11-16T17:25:27.963Z,95199.56
2022-11-16T17:27:57.179Z,95196.59
2022-11-16T17:30:26.400Z,95184.72
2022-11-16T17:32:55.279Z,95186.59
2022-11-16T17:35:25.742Z,95191.19
2022-11-16T17:37:54.839Z,95197.41
2022-11-16T17:40:23.273Z,95201.19
2022-11-16T17:42:52.524Z,95197.41
2022-11-16T17:45:20.944Z,95200.38
2022-11-16T17:47:50.161Z,95196.34
2022-11-16T17:50:18.603Z,95192.28
2022-11-16T17:52:49.108Z,95183.88
2022-11-16T17:55:18.201Z,95185.78
2022-11-16T17:57:46.821Z,95172.53
2022-11-16T18:00:17.678Z,95183.06
2022-11-16T18:02:47.226Z,95182.22
2022-11-16T18:05:15.660Z,95181.91
2022-11-16T18:07:45.266Z,95184.91
2022-11-16T18:10:19.170Z,95187.09
2022-11-16T18:12:48.618Z,95183.28
2022-11-16T18:15:34.523Z,95184.03
2022-11-16T18:18:07.099Z,95181.06
2022-11-16T18:20:37.485Z,95174.03
2022-11-16T18:23:06.737Z,95170.00
2022-11-16T18:25:36.892Z,95173.50
2022-11-16T18:28:06.372Z,95169.69
2022-11-16T18:30:35.194Z,95172.13
2022-11-16T18:33:03.607Z,95155.34
2022-11-16T18:35:33.122Z,95165.41
2022-11-16T18:38:02.162Z,95154.88
2022-11-16T18:40:31.590Z,95154.06
2022-11-16T18:43:01.394Z,95146.50
2022-11-16T18:45:30.662Z,95128.38
2022-11-16T18:47:59.096Z,95124.03
2022-11-16T18:50:28.322Z,95124.28
2022-11-16T18:52:57.733Z,95128.63
2022-11-16T18:55:27.013Z,95133.72
2022-11-16T18:57:55.443Z,95124.25
2022-11-16T19:00:26.242Z,95130.47
2022-11-16T19:02:54.766Z,95135.34
2022-11-16T19:05:23.734Z,95137.50
2022-11-16T19:07:52.989Z,95140.44
2022-11-16T19:10:21.949Z,95145.91
2022-11-16T19:12:50.836Z,95138.06
2022-11-16T19:15:19.353Z,95110.78
2022-11-16T19:18:14.593Z,95082.09
2022-11-16T19:20:39.364Z,95116.47
2022-11-16T19:23:07.838Z,95108.88
2022-11-16T19:25:37.182Z,95106.72
2022-11-16T19:28:06.084Z,95118.59
2022-11-16T19:30:35.329Z,95120.78
2022-11-16T19:33:05.669Z,95116.47
2022-11-16T19:35:34.444Z,95078.81
2022-11-16T19:38:03.617Z,95107.25
2022-11-16T19:40:32.037Z,95112.38
2022-11-16T19:43:01.309Z,95108.03
2022-11-16T19:45:29.716Z,95119.09
2022-11-16T19:47:59.118Z,95113.16
2022-11-16T19:50:29.365Z,95110.72
2022-11-16T19:52:57.957Z,95107.22
2022-11-16T19:55:28.601Z,95105.56
2022-11-16T19:57:57.707Z,95105.56
2022-11-16T20:00:26.617Z,95101.25
2022-11-16T20:02:57.230Z,95104.47
2022-11-16T20:05:30.279Z,95108.00
2022-11-16T20:07:59.182Z,95095.84
2022-11-16T20:10:29.634Z,95095.25
2022-11-16T20:12:59.070Z,95090.41
2022-11-16T20:15:27.516Z,95080.63
2022-11-16T20:17:57.121Z,95076.81
2022-11-16T20:20:26.104Z,95084.66
2022-11-16T20:22:56.286Z,95083.31
2022-11-16T20:25:24.658Z,95075.22
2022-11-16T20:27:53.509Z,95076.88
2022-11-16T20:30:22.552Z,95056.31
2022-11-16T20:32:50.975Z,95066.88
2022-11-16T20:35:20.178Z,95075.53
2022-11-16T20:37:49.069Z,95047.34
2022-11-16T20:40:18.966Z,95079.03
2022-11-16T20:42:48.175Z,95079.06
2022-11-16T20:45:16.660Z,95072.59
2022-11-16T20:47:45.511Z,95089.31
2022-11-16T20:50:13.918Z,95084.47
2022-11-16T20:52:44.357Z,95085.84
2022-11-16T20:55:15.838Z,95082.88
2022-11-16T20:57:46.262Z,95081.25
2022-11-16T21:00:16.599Z,95087.47
2022-11-16T21:02:45.461Z,95082.34
2022-11-16T21:05:13.974Z,95079.38
2022-11-16T21:07:44.399Z,95068.56
2022-11-16T21:10:21.634Z,95069.38
2022-11-16T21:13:09.894Z,95084.50
2022-11-16T21:15:38.793Z,95089.63
2022-11-16T21:18:07.295Z,95090.94
2022-11-16T21:20:36.742Z,95070.16
2022-11-16T21:23:05.184Z,95075.84
2022-11-16T21:25:34.393Z,95063.66
2022-11-16T21:28:04.272Z,95063.44
2022-11-16T21:30:33.136Z,95071.50
2022-11-16T21:33:02.033Z,95069.06
2022-11-16T21:35:31.147Z,95071.47
2022-11-16T21:37:59.837Z,95071.75
2022-11-16T21:40:28.849Z,95067.97
2022-11-16T21:42:57.227Z,95070.38
2022-11-16T21:45:27.457Z,95075.25
2022-11-16T21:47:56.316Z,95074.75
2022-11-16T21:50:31.543Z,95085.28
2022-11-16T21:53:01.368Z,95087.13
2022-11-16T21:55:29.965Z,95053.00
2022-11-16T21:57:59.818Z,95087.66
2022-11-16T22:00:29.592Z,95084.41
2022-11-16T22:02:58.925Z,95080.91
2022-11-16T22:05:45.075Z,95089.59
2022-11-16T22:08:13.449Z,95093.41
2022-11-16T22:10:42.471Z,95092.63
2022-11-16T22:13:10.882Z,95079.41
2022-11-16T22:15:41.219Z,95061.84
2022-11-16T22:18:09.594Z,95053.72
2022-11-16T22:20:38.846Z,95040.22
2022-11-16T22:23:07.709Z,95049.91
2022-11-16T22:25:37.805Z,95009.84
2022-11-16T22:28:20.490Z,95037.94
2022-11-16T22:30:52.286Z,95029.06
2022-11-16T22:33:21.535Z,95024.75
2022-11-16T22:35:49.924Z,95018.78
2022-11-16T22:38:19.641Z,95022.84
2022-11-16T22:40:52.771Z,95021.72
2022-11-16T22:43:22.229Z,95020.38
2022-11-16T22:45:52.415Z,95013.28
2022-11-16T22:48:20.824Z,94996.28
2022-11-16T22:50:50.115Z,95032.00
2022-11-16T22:53:18.500Z,95036.09
2022-11-16T22:55:47.294Z,95031.25
2022-11-16T22:58:15.683Z,95038.56
2022-11-16T23:00:44.754Z,95037.19
2022-11-16T23:03:15.027Z,95027.41
2022-11-16T23:05:43.499Z,95024.13
2022-11-16T23:08:12.831Z,95021.66
2022-11-16T23:10:55.176Z,94997.06
2022-11-16T23:13:41.717Z,94991.94
2022-11-16T23:16:10.260Z,94997.31
2022-11-16T23:18:40.055Z,94998.44
2022-11-16T23:21:26.531Z,94997.66
2022-11-16T23:24:12.372Z,94992.19
2022-11-16T23:26:58.882Z,94992.44
2022-11-16T23:29:27.297Z,94991.50
2022-11-16T23:31:56.159Z,94995.31
2022-11-16T23:34:25.957Z,94991.28
2022-11-16T23:36:55.242Z,94994.78
2022-11-16T23:39:23.879Z,94978.31
2022-11-16T23:42:10.282Z,94975.31
2022-11-16T23:44:39.131Z,94971.50
2022-11-16T23:47:07.525Z,94979.31
2022-11-16T23:49:37.974Z,94972.84
2022-11-16T23:52:06.566Z,94955.53
2022-11-16T23:54:35.677Z,94963.69
2022-11-16T23:57:05.174Z,94962.59
2022-11-16T23:59:33.868Z,94957.22
